sensor_id;sensor_type;location;lat;lon;timestamp;pressure;altitude;pressure_sealevel;temperature;humidity
54439;BME280;40347;53.848;27.498;2023-05-25T00:01:37;1015;;;17.8;52.3
54439;BME280;40347;53.848;27.498;2023-05-25T00:06:31;1015;;;17.7;52.4
54439;BME280;40347;53.848;27.498;2023-05-25T00:11:49;1015.1;;;17.6;52.3
54439;BME280;40347;53.848;27.498;2023-05-25T00:16:25;1015.1;;;17.5;53.3
54439;BME280;40347;53.848;27.498;2023-05-25T00:21:41;1015.1;;;17.5;53.2
54439;BME280;40347;53.848;27.498;2023-05-25T00:26:47;1015.1;;;17.5;52.9
54439;BME280;40347;53.848;27.498;2023-05-25T00:31:25;1015.1;;;17.4;53.3
54439;BME280;40347;53.848;27.498;2023-05-25T00:36:37;1015.1;;;17.4;53.3
54439;BME280;40347;53.848;27.498;2023-05-25T00:41:44;1015.1;;;17.2;53.9
54439;BME280;40347;53.848;27.498;2023-05-25T00:46:44;1015.1;;;17.1;54.5
54439;BME280;40347;53.848;27.498;2023-05-25T00:51:25;1015.1;;;16.9;55.2
54439;BME280;40347;53.848;27.498;2023-05-25T00:56:29;1015;;;16.8;55.3
54439;BME280;40347;53.848;27.498;2023-05-25T01:01:34;1015;;;16.8;55.7
54439;BME280;40347;53.848;27.498;2023-05-25T01:06:25;1014.9;;;16.8;56
54439;BME280;40347;53.848;27.498;2023-05-25T01:11:47;1014.9;;;16.6;56.7
54439;BME280;40347;53.848;27.498;2023-05-25T01:16:49;1014.9;;;16.6;57.3
54439;BME280;40347;53.848;27.498;2023-05-25T01:21:53;1014.9;;;16.7;57.6
54439;BME280;40347;53.848;27.498;2023-05-25T01:26:38;1014.9;;;16.7;57.3
54439;BME280;40347;53.848;27.498;2023-05-25T01:31:45;1014.9;;;16.6;57.8
54439;BME280;40347;53.848;27.498;2023-05-25T01:36:47;1014.8;;;16.5;58
54439;BME280;40347;53.848;27.498;2023-05-25T01:41:35;1014.8;;;16.3;58.8
54439;BME280;40347;53.848;27.498;2023-05-25T01:46:26;1014.8;;;16.2;59.3
54439;BME280;40347;53.848;27.498;2023-05-25T01:51:35;1014.8;;;16.1;59.8
54439;BME280;40347;53.848;27.498;2023-05-25T01:56:37;1014.8;;;15.9;60.6
54439;BME280;40347;53.848;27.498;2023-05-25T02:01:45;1014.8;;;15.9;60.9
54439;BME280;40347;53.848;27.498;2023-05-25T02:06:57;1014.8;;;15.8;61.1
54439;BME280;40347;53.848;27.498;2023-05-25T02:11:25;1014.9;;;15.7;61.8
54439;BME280;40347;53.848;27.498;2023-05-25T02:16:39;1015;;;15.6;62.5
54439;BME280;40347;53.848;27.498;2023-05-25T02:21:25;1015;;;15.6;63
54439;BME280;40347;53.848;27.498;2023-05-25T02:26:45;1015.1;;;15.6;63.1
54439;BME280;40347;53.848;27.498;2023-05-25T02:31:25;1015.1;;;15.6;63.6
54439;BME280;40347;53.848;27.498;2023-05-25T02:36:31;1015.1;;;15.7;63.4
54439;BME280;40347;53.848;27.498;2023-05-25T02:42:13;1015.1;;;15.7;64.4
54439;BME280;40347;53.848;27.498;2023-05-25T02:46:59;1015.1;;;15.8;64.3
54439;BME280;40347;53.848;27.498;2023-05-25T02:51:33;1015.2;;;16.1;63.7
54439;BME280;40347;53.848;27.498;2023-05-25T02:56:25;1015.2;;;16.3;63.9
54439;BME280;40347;53.848;27.498;2023-05-25T03:01:25;1015.2;;;16.4;63.2
54439;BME280;40347;53.848;27.498;2023-05-25T03:06:39;1015.2;;;16.5;62.5
54439;BME280;40347;53.848;27.498;2023-05-25T03:11:25;1015.2;;;16.6;62.8
54439;BME280;40347;53.848;27.498;2023-05-25T03:16:43;1015.3;;;16.6;62.8
54439;BME280;40347;53.848;27.498;2023-05-25T03:21:49;1015.3;;;16.7;62.7
54439;BME280;40347;53.848;27.498;2023-05-25T03:26:41;1015.3;;;16.9;62.3
54439;BME280;40347;53.848;27.498;2023-05-25T03:31:37;1015.4;;;17;62.1
54439;BME280;40347;53.848;27.498;2023-05-25T03:36:49;1015.4;;;17.1;62.2
54439;BME280;40347;53.848;27.498;2023-05-25T03:41:31;1015.4;;;17.2;62.4
54439;BME280;40347;53.848;27.498;2023-05-25T03:46:35;1015.5;;;17.4;62.1
54439;BME280;40347;53.848;27.498;2023-05-25T03:51:59;1015.5;;;17.6;61.7
54439;BME280;40347;53.848;27.498;2023-05-25T03:56:37;1015.6;;;17.7;61.5
54439;BME280;40347;53.848;27.498;2023-05-25T04:01:25;1015.6;;;17.9;60.8
54439;BME280;40347;53.848;27.498;2023-05-25T04:06:37;1015.6;;;18;60.4
54439;BME280;40347;53.848;27.498;2023-05-25T04:11:26;1015.6;;;18.3;59.2
54439;BME280;40347;53.848;27.498;2023-05-25T04:16:25;1015.6;;;18.5;58.1
54439;BME280;40347;53.848;27.498;2023-05-25T04:21:35;1015.6;;;18.8;57.5
54439;BME280;40347;53.848;27.498;2023-05-25T04:26:25;1015.6;;;19.3;56.6
54439;BME280;40347;53.848;27.498;2023-05-25T04:31:25;1015.6;;;19.7;55.8
54439;BME280;40347;53.848;27.498;2023-05-25T04:36:25;1015.6;;;20.1;54.8
54439;BME280;40347;53.848;27.498;2023-05-25T04:41:25;1015.6;;;20.4;54.1
54439;BME280;40347;53.848;27.498;2023-05-25T04:46:25;1015.6;;;20.9;52.7
54439;BME280;40347;53.848;27.498;2023-05-25T04:51:25;1015.6;;;21.4;51.5
54439;BME280;40347;53.848;27.498;2023-05-25T04:56:25;1015.7;;;21.7;50.7
54439;BME280;40347;53.848;27.498;2023-05-25T05:01:25;1015.7;;;22.2;49.3
54439;BME280;40347;53.848;27.498;2023-05-25T05:06:25;1015.7;;;22.8;48.7
54439;BME280;40347;53.848;27.498;2023-05-25T05:11:26;1015.7;;;23.6;47.5
54439;BME280;40347;53.848;27.498;2023-05-25T05:16:25;1015.7;;;24.2;43.9
54439;BME280;40347;53.848;27.498;2023-05-25T05:21:43;1015.6;;;24.6;43.2
54439;BME280;40347;53.848;27.498;2023-05-25T05:27:01;1015.6;;;24.9;42.6
54439;BME280;40347;53.848;27.498;2023-05-25T05:31:25;1015.6;;;25.1;42.4
54439;BME280;40347;53.848;27.498;2023-05-25T05:36:37;1015.6;;;25;42
54439;BME280;40347;53.848;27.498;2023-05-25T05:41:55;1015.7;;;25;41.9
54439;BME280;40347;53.848;27.498;2023-05-25T05:46:25;1015.7;;;24.9;42.3
54439;BME280;40347;53.848;27.498;2023-05-25T05:51:47;1015.7;;;24.9;41.8
54439;BME280;40347;53.848;27.498;2023-05-25T05:56:31;1015.7;;;25.1;41.9
54439;BME280;40347;53.848;27.498;2023-05-25T06:02:04;1015.7;;;25.2;41.2
54439;BME280;40347;53.848;27.498;2023-05-25T06:06:25;1015.7;;;25.4;41.5
54439;BME280;40347;53.848;27.498;2023-05-25T06:11:25;1015.7;;;25.5;41.3
54439;BME280;40347;53.848;27.498;2023-05-25T06:16:49;1015.7;;;25.5;41.1
54439;BME280;40347;53.848;27.498;2023-05-25T06:21:37;1015.7;;;25.4;41.4
54439;BME280;40347;53.848;27.498;2023-05-25T06:26:37;1015.7;;;25.3;41.9
54439;BME280;40347;53.848;27.498;2023-05-25T06:31:47;1015.7;;;25.2;41.6
54439;BME280;40347;53.848;27.498;2023-05-25T06:36:37;1015.7;;;25.1;41.7
54439;BME280;40347;53.848;27.498;2023-05-25T06:41:37;1015.7;;;25;41.5
54439;BME280;40347;53.848;27.498;2023-05-25T06:46:31;1015.7;;;24.9;41.9
54439;BME280;40347;53.848;27.498;2023-05-25T06:51:49;1015.7;;;24.8;42
54439;BME280;40347;53.848;27.498;2023-05-25T06:56:25;1015.7;;;24.7;42.1
54439;BME280;40347;53.848;27.498;2023-05-25T07:01:41;1015.6;;;24.6;41.6
54439;BME280;40347;53.848;27.498;2023-05-25T07:06:33;1015.7;;;24.7;41.5
54439;BME280;40347;53.848;27.498;2023-05-25T07:11:37;1015.7;;;24.8;41.4
54439;BME280;40347;53.848;27.498;2023-05-25T07:16:37;1015.6;;;25.1;40.6
54439;BME280;40347;53.848;27.498;2023-05-25T07:21:25;1015.6;;;25.4;40.7
54439;BME280;40347;53.848;27.498;2023-05-25T07:26:26;1015.6;;;25.6;40.4
54439;BME280;40347;53.848;27.498;2023-05-25T07:31:37;1015.6;;;25.8;39.5
54439;BME280;40347;53.848;27.498;2023-05-25T07:36:45;1015.6;;;25.9;37.5
54439;BME280;40347;53.848;27.498;2023-05-25T07:41:37;1015.6;;;25.7;35.7
54439;BME280;40347;53.848;27.498;2023-05-25T07:46:25;1015.6;;;25.6;36.1
54439;BME280;40347;53.848;27.498;2023-05-25T07:51:25;1015.5;;;25.5;36.6
54439;BME280;40347;53.848;27.498;2023-05-25T07:56:35;1015.4;;;25.5;36.2
54439;BME280;40347;53.848;27.498;2023-05-25T08:01:37;1015.4;;;25.5;36.5
54439;BME280;40347;53.848;27.498;2023-05-25T08:06:37;1015.5;;;25.6;34.5
54439;BME280;40347;53.848;27.498;2023-05-25T08:11:35;1015.4;;;25.7;35.4
54439;BME280;40347;53.848;27.498;2023-05-25T08:16:25;1015.4;;;25.8;35.2
54439;BME280;40347;53.848;27.498;2023-05-25T08:21:55;1015.4;;;25.9;36.1
54439;BME280;40347;53.848;27.498;2023-05-25T08:26:25;1015.5;;;25.7;37.4
54439;BME280;40347;53.848;27.498;2023-05-25T08:31:37;1015.4;;;25.3;36.7
54439;BME280;40347;53.848;27.498;2023-05-25T08:36:39;1015.4;;;24.9;36.7
54439;BME280;40347;53.848;27.498;2023-05-25T08:41:31;1015.4;;;24.6;36.4
54439;BME280;40347;53.848;27.498;2023-05-25T08:46:35;1015.4;;;24.5;36.1
54439;BME280;40347;53.848;27.498;2023-05-25T08:51:25;1015.4;;;24.9;35.1
54439;BME280;40347;53.848;27.498;2023-05-25T08:56:25;1015.4;;;25.7;33.8
54439;BME280;40347;53.848;27.498;2023-05-25T09:01:49;1015.3;;;26.5;33.2
54439;BME280;40347;53.848;27.498;2023-05-25T09:06:25;1015.3;;;27.1;34.2
54439;BME280;40347;53.848;27.498;2023-05-25T09:11:51;1015.3;;;27.5;33.1
54439;BME280;40347;53.848;27.498;2023-05-25T09:16:37;1015.3;;;27.5;32.3
54439;BME280;40347;53.848;27.498;2023-05-25T09:21:37;1015.3;;;27.5;32.7
54439;BME280;40347;53.848;27.498;2023-05-25T09:26:45;1015.3;;;27.4;32.8
54439;BME280;40347;53.848;27.498;2023-05-25T09:31:31;1015.3;;;27.4;32.6
54439;BME280;40347;53.848;27.498;2023-05-25T09:36:57;1015.3;;;27.6;32.7
54439;BME280;40347;53.848;27.498;2023-05-25T09:41:39;1015.2;;;28;31.5
54439;BME280;40347;53.848;27.498;2023-05-25T09:46:25;1015.2;;;28.1;31.5
54439;BME280;40347;53.848;27.498;2023-05-25T09:51:49;1015.2;;;27.8;30.8
54439;BME280;40347;53.848;27.498;2023-05-25T09:56:37;1015.3;;;27.5;30.6
54439;BME280;40347;53.848;27.498;2023-05-25T10:01:37;1015.3;;;27.3;31.4
54439;BME280;40347;53.848;27.498;2023-05-25T10:06:25;1015.2;;;27.3;31.7
54439;BME280;40347;53.848;27.498;2023-05-25T10:11:45;1015.2;;;27.5;30.4
54439;BME280;40347;53.848;27.498;2023-05-25T10:16:49;1015.2;;;27.6;30
54439;BME280;40347;53.848;27.498;2023-05-25T10:21:32;1015.2;;;27.8;29.8
54439;BME280;40347;53.848;27.498;2023-05-25T10:26:25;1015.1;;;28;29.9
54439;BME280;40347;53.848;27.498;2023-05-25T10:32:01;1015.1;;;28.1;30.4
54439;BME280;40347;53.848;27.498;2023-05-25T10:36:26;1015.1;;;28.1;30.3
54439;BME280;40347;53.848;27.498;2023-05-25T10:41:33;1015;;;28.1;30.3
54439;BME280;40347;53.848;27.498;2023-05-25T10:46:25;1015;;;27.8;29.9
54439;BME280;40347;53.848;27.498;2023-05-25T10:51:56;1015;;;27.4;30.1
54439;BME280;40347;53.848;27.498;2023-05-25T10:57:06;1014.9;;;27.1;29.7
54439;BME280;40347;53.848;27.498;2023-05-25T11:01:48;1015;;;26.9;31
54439;BME280;40347;53.848;27.498;2023-05-25T11:07:02;1015;;;26.9;31.3
54439;BME280;40347;53.848;27.498;2023-05-25T11:11:59;1015;;;26.7;30.6
54439;BME280;40347;53.848;27.498;2023-05-25T11:16:30;1014.9;;;26.7;31
54439;BME280;40347;53.848;27.498;2023-05-25T11:21:41;1014.8;;;26.7;30.9
54439;BME280;40347;53.848;27.498;2023-05-25T11:26:57;1014.8;;;26.8;30.5
54439;BME280;40347;53.848;27.498;2023-05-25T11:31:33;1014.8;;;26.8;30.4
54439;BME280;40347;53.848;27.498;2023-05-25T11:36:37;1014.8;;;26.9;30.6
54439;BME280;40347;53.848;27.498;2023-05-25T11:41:25;1014.7;;;27;29.1
54439;BME280;40347;53.848;27.498;2023-05-25T11:46:37;1014.6;;;26.9;29.3
54439;BME280;40347;53.848;27.498;2023-05-25T11:51:26;1014.6;;;26.9;28.9
54439;BME280;40347;53.848;27.498;2023-05-25T11:56:49;1014.6;;;27.1;29.4
54439;BME280;40347;53.848;27.498;2023-05-25T12:01:25;1014.5;;;27.5;28.8
54439;BME280;40347;53.848;27.498;2023-05-25T12:06:35;1014.5;;;27.9;28.9
54439;BME280;40347;53.848;27.498;2023-05-25T12:11:51;1014.5;;;28.2;27.9
54439;BME280;40347;53.848;27.498;2023-05-25T12:16:25;1014.5;;;28.5;28
54439;BME280;40347;53.848;27.498;2023-05-25T12:21:47;1014.5;;;28.7;28
54439;BME280;40347;53.848;27.498;2023-05-25T12:26:26;1014.5;;;28.6;28.1
54439;BME280;40347;53.848;27.498;2023-05-25T12:31:26;1014.5;;;28.2;28.6
54439;BME280;40347;53.848;27.498;2023-05-25T12:36:38;1014.5;;;27.9;28.9
54439;BME280;40347;53.848;27.498;2023-05-25T12:41:41;1014.5;;;27.8;29.3
54439;BME280;40347;53.848;27.498;2023-05-25T12:46:25;1014.4;;;27.7;28.9
54439;BME280;40347;53.848;27.498;2023-05-25T12:51:41;1014.4;;;27.9;29.2
54439;BME280;40347;53.848;27.498;2023-05-25T12:56:25;1014.4;;;28.3;29
54439;BME280;40347;53.848;27.498;2023-05-25T13:01:41;1014.3;;;28.5;28.8
54439;BME280;40347;53.848;27.498;2023-05-25T13:06:31;1014.3;;;28.5;28
54439;BME280;40347;53.848;27.498;2023-05-25T13:11:37;1014.2;;;27.8;27.6
54439;BME280;40347;53.848;27.498;2023-05-25T13:16:25;1014.2;;;27.1;28.8
54439;BME280;40347;53.848;27.498;2023-05-25T13:21:37;1014.3;;;26.4;29.7
54439;BME280;40347;53.848;27.498;2023-05-25T13:26:37;1014.2;;;25.9;30.2
54439;BME280;40347;53.848;27.498;2023-05-25T13:31:37;1014.2;;;25.8;30.4
54439;BME280;40347;53.848;27.498;2023-05-25T13:36:25;1014.1;;;25.8;30.4
54439;BME280;40347;53.848;27.498;2023-05-25T13:41:33;1014.1;;;26;31.1
54439;BME280;40347;53.848;27.498;2023-05-25T13:46:25;1014.1;;;26.1;30.9
54439;BME280;40347;53.848;27.498;2023-05-25T13:51:25;1014;;;26.3;30.2
54439;BME280;40347;53.848;27.498;2023-05-25T13:56:25;1014;;;26.5;30.5
54439;BME280;40347;53.848;27.498;2023-05-25T14:01:25;1014;;;26.9;30.2
54439;BME280;40347;53.848;27.498;2023-05-25T14:06:49;1013.9;;;27.2;30
54439;BME280;40347;53.848;27.498;2023-05-25T14:11:25;1013.9;;;27.4;29.4
54439;BME280;40347;53.848;27.498;2023-05-25T14:16:31;1013.9;;;27.2;29.7
54439;BME280;40347;53.848;27.498;2023-05-25T14:21:43;1013.8;;;26.9;30.4
54439;BME280;40347;53.848;27.498;2023-05-25T14:26:25;1013.8;;;26.7;31.1
54439;BME280;40347;53.848;27.498;2023-05-25T14:31:43;1013.8;;;26.5;31.5
54439;BME280;40347;53.848;27.498;2023-05-25T14:36:51;1013.8;;;26.2;31.6
54439;BME280;40347;53.848;27.498;2023-05-25T14:41:37;1013.7;;;26.1;31.9
54439;BME280;40347;53.848;27.498;2023-05-25T14:46:31;1013.7;;;25.8;32.6
54439;BME280;40347;53.848;27.498;2023-05-25T14:51:37;1013.7;;;25.4;33.1
54439;BME280;40347;53.848;27.498;2023-05-25T14:56:37;1013.7;;;25.2;33.7
54439;BME280;40347;53.848;27.498;2023-05-25T15:01:25;1013.7;;;25;34.5
54439;BME280;40347;53.848;27.498;2023-05-25T15:06:25;1013.7;;;25;35.1
54439;BME280;40347;53.848;27.498;2023-05-25T15:11:25;1013.7;;;24.9;35.1
54439;BME280;40347;53.848;27.498;2023-05-25T15:16:25;1013.7;;;24.8;35.3
54439;BME280;40347;53.848;27.498;2023-05-25T15:21:25;1013.7;;;24.7;35.3
54439;BME280;40347;53.848;27.498;2023-05-25T15:26:25;1013.6;;;24.7;35.1
54439;BME280;40347;53.848;27.498;2023-05-25T15:31:25;1013.6;;;24.7;35.5
54439;BME280;40347;53.848;27.498;2023-05-25T15:36:31;1013.6;;;24.5;36.1
54439;BME280;40347;53.848;27.498;2023-05-25T15:41:25;1013.6;;;24.5;36.5
54439;BME280;40347;53.848;27.498;2023-05-25T15:46:49;1013.6;;;24.4;37
54439;BME280;40347;53.848;27.498;2023-05-25T15:51:37;1013.6;;;24.3;37.2
54439;BME280;40347;53.848;27.498;2023-05-25T15:56:25;1013.6;;;24.2;37.3
54439;BME280;40347;53.848;27.498;2023-05-25T16:01:37;1013.6;;;24;37.6
54439;BME280;40347;53.848;27.498;2023-05-25T16:06:45;1013.6;;;23.8;38.1
54439;BME280;40347;53.848;27.498;2023-05-25T16:11:31;1013.7;;;23.7;38.2
54439;BME280;40347;53.848;27.498;2023-05-25T16:16:25;1013.7;;;23.6;38
54439;BME280;40347;53.848;27.498;2023-05-25T16:21:25;1013.7;;;23.6;37.7
54439;BME280;40347;53.848;27.498;2023-05-25T16:26:25;1013.7;;;23.8;37.4
54439;BME280;40347;53.848;27.498;2023-05-25T16:31:49;1013.7;;;24.1;37.4
54439;BME280;40347;53.848;27.498;2023-05-25T16:36:51;1013.7;;;24.1;37.6
54439;BME280;40347;53.848;27.498;2023-05-25T16:41:39;1013.7;;;24;37.7
54439;BME280;40347;53.848;27.498;2023-05-25T16:46:31;1013.6;;;23.9;38
54439;BME280;40347;53.848;27.498;2023-05-25T16:51:25;1013.7;;;23.8;38.1
54439;BME280;40347;53.848;27.498;2023-05-25T16:56:37;1013.7;;;23.8;38
54439;BME280;40347;53.848;27.498;2023-05-25T17:01:31;1013.7;;;23.6;37.9
54439;BME280;40347;53.848;27.498;2023-05-25T17:06:25;1013.7;;;23.4;37.5
54439;BME280;40347;53.848;27.498;2023-05-25T17:11:37;1013.7;;;23.3;37.1
54439;BME280;40347;53.848;27.498;2023-05-25T17:16:45;1013.7;;;23.3;36.8
54439;BME280;40347;53.848;27.498;2023-05-25T17:21:25;1013.7;;;23.2;36.8
54439;BME280;40347;53.848;27.498;2023-05-25T17:26:43;1013.8;;;23.3;36.9
54439;BME280;40347;53.848;27.498;2023-05-25T17:31:31;1013.9;;;23.2;37
54439;BME280;40347;53.848;27.498;2023-05-25T17:36:37;1013.9;;;23.1;37.4
54439;BME280;40347;53.848;27.498;2023-05-25T17:41:38;1014;;;23;37.6
54439;BME280;40347;53.848;27.498;2023-05-25T17:46:26;1014;;;22.9;37.6
54439;BME280;40347;53.848;27.498;2023-05-25T17:51:43;1014.1;;;22.7;37.8
54439;BME280;40347;53.848;27.498;2023-05-25T17:56:37;1014.1;;;22.6;37.9
54439;BME280;40347;53.848;27.498;2023-05-25T18:01:37;1014.2;;;22.4;38.2
54439;BME280;40347;53.848;27.498;2023-05-25T18:06:43;1014.2;;;22.2;39.1
54439;BME280;40347;53.848;27.498;2023-05-25T18:11:31;1014.2;;;22;39.3
54439;BME280;40347;53.848;27.498;2023-05-25T18:16:35;1014.3;;;21.9;39.4
54439;BME280;40347;53.848;27.498;2023-05-25T18:21:43;1014.3;;;21.7;39.8
54439;BME280;40347;53.848;27.498;2023-05-25T18:26:25;1014.3;;;21.5;40.4
54439;BME280;40347;53.848;27.498;2023-05-25T18:31:25;1014.3;;;21.3;40.5
54439;BME280;40347;53.848;27.498;2023-05-25T18:36:45;1014.3;;;21.2;40.8
54439;BME280;40347;53.848;27.498;2023-05-25T18:41:37;1014.3;;;21.2;41.1
54439;BME280;40347;53.848;27.498;2023-05-25T18:46:25;1014.4;;;21.1;41.2
54439;BME280;40347;53.848;27.498;2023-05-25T18:52:04;1014.4;;;21;41.8
54439;BME280;40347;53.848;27.498;2023-05-25T18:56:31;1014.4;;;21;41.8
54439;BME280;40347;53.848;27.498;2023-05-25T19:01:25;1014.4;;;21;41.7
54439;BME280;40347;53.848;27.498;2023-05-25T19:06:25;1014.5;;;20.8;42.3
54439;BME280;40347;53.848;27.498;2023-05-25T19:11:37;1014.5;;;20.7;42.5
54439;BME280;40347;53.848;27.498;2023-05-25T19:16:25;1014.5;;;20.7;42.5
54439;BME280;40347;53.848;27.498;2023-05-25T19:21:35;1014.5;;;20.6;43.1
54439;BME280;40347;53.848;27.498;2023-05-25T19:26:49;1014.5;;;20.4;43.5
54439;BME280;40347;53.848;27.498;2023-05-25T19:31:37;1014.6;;;20.3;43.7
54439;BME280;40347;53.848;27.498;2023-05-25T19:36:37;1014.6;;;20.1;44.2
54439;BME280;40347;53.848;27.498;2023-05-25T19:41:51;1014.6;;;20.1;44.3
54439;BME280;40347;53.848;27.498;2023-05-25T19:46:31;1014.6;;;20.1;44.5
54439;BME280;40347;53.848;27.498;2023-05-25T19:51:37;1014.5;;;19.9;45.1
54439;BME280;40347;53.848;27.498;2023-05-25T19:56:25;1014.6;;;19.8;45.5
54439;BME280;40347;53.848;27.498;2023-05-25T20:01:43;1014.6;;;19.7;45.5
54439;BME280;40347;53.848;27.498;2023-05-25T20:06:25;1014.6;;;19.5;45.8
54439;BME280;40347;53.848;27.498;2023-05-25T20:11:47;1014.6;;;19.4;45.9
54439;BME280;40347;53.848;27.498;2023-05-25T20:16:37;1014.6;;;19.3;46.2
54439;BME280;40347;53.848;27.498;2023-05-25T20:21:58;1014.6;;;19.2;46.7
54439;BME280;40347;53.848;27.498;2023-05-25T20:26:43;1014.6;;;19.1;47.1
54439;BME280;40347;53.848;27.498;2023-05-25T20:31:39;1014.6;;;19;47.6
54439;BME280;40347;53.848;27.498;2023-05-25T20:36:37;1014.6;;;18.9;47.9
54439;BME280;40347;53.848;27.498;2023-05-25T20:41:25;1014.6;;;18.9;48.1
54439;BME280;40347;53.848;27.498;2023-05-25T20:46:25;1014.6;;;18.8;48
54439;BME280;40347;53.848;27.498;2023-05-25T20:51:26;1014.6;;;18.8;48.4
54439;BME280;40347;53.848;27.498;2023-05-25T20:56:39;1014.7;;;18.7;48.7
54439;BME280;40347;53.848;27.498;2023-05-25T21:01:37;1014.6;;;18.8;48.3
54439;BME280;40347;53.848;27.498;2023-05-25T21:06:38;1014.6;;;18.9;48.9
54439;BME280;40347;53.848;27.498;2023-05-25T21:11:45;1014.6;;;19;48.5
54439;BME280;40347;53.848;27.498;2023-05-25T21:16:33;1014.6;;;19.1;48.4
54439;BME280;40347;53.848;27.498;2023-05-25T21:21:26;1014.6;;;19.2;48.1
54439;BME280;40347;53.848;27.498;2023-05-25T21:26:46;1014.7;;;19.2;48.9
54439;BME280;40347;53.848;27.498;2023-05-25T21:31:38;1014.6;;;19.2;48.8
54439;BME280;40347;53.848;27.498;2023-05-25T21:36:37;1014.6;;;19.2;48.6
54439;BME280;40347;53.848;27.498;2023-05-25T21:41:40;1014.5;;;19.2;48.8
54439;BME280;40347;53.848;27.498;2023-05-25T21:46:36;1014.5;;;19.1;49.1
54439;BME280;40347;53.848;27.498;2023-05-25T21:51:44;1014.6;;;18.9;49.2
54439;BME280;40347;53.848;27.498;2023-05-25T21:56:38;1014.6;;;18.8;49.6
54439;BME280;40347;53.848;27.498;2023-05-25T22:01:38;1014.5;;;18.7;49.5
54439;BME280;40347;53.848;27.498;2023-05-25T22:06:38;1014.5;;;18.5;49.9
54439;BME280;40347;53.848;27.498;2023-05-25T22:11:26;1014.5;;;18.4;50.4
54439;BME280;40347;53.848;27.498;2023-05-25T22:16:26;1014.5;;;18.2;50.8
54439;BME280;40347;53.848;27.498;2023-05-25T22:21:52;1014.5;;;18.1;51.2
54439;BME280;40347;53.848;27.498;2023-05-25T22:26:26;1014.5;;;17.9;51.9
54439;BME280;40347;53.848;27.498;2023-05-25T22:31:26;1014.6;;;17.9;52.1
54439;BME280;40347;53.848;27.498;2023-05-25T22:36:38;1014.6;;;17.8;52.3
54439;BME280;40347;53.848;27.498;2023-05-25T22:41:50;1014.5;;;17.6;52.9
54439;BME280;40347;53.848;27.498;2023-05-25T22:46:26;1014.5;;;17.5;53.2
54439;BME280;40347;53.848;27.498;2023-05-25T22:51:26;1014.5;;;17.4;53.7
54439;BME280;40347;53.848;27.498;2023-05-25T22:56:38;1014.5;;;17.4;54.2
54439;BME280;40347;53.848;27.498;2023-05-25T23:01:38;1014.6;;;17.3;54
54439;BME280;40347;53.848;27.498;2023-05-25T23:06:32;1014.6;;;17.2;54.6
54439;BME280;40347;53.848;27.498;2023-05-25T23:11:26;1014.6;;;17.1;54.9
54439;BME280;40347;53.848;27.498;2023-05-25T23:16:38;1014.7;;;17;55.5
54439;BME280;40347;53.848;27.498;2023-05-25T23:21:32;1014.7;;;17;55.5
54439;BME280;40347;53.848;27.498;2023-05-25T23:26:50;1014.6;;;16.9;56
54439;BME280;40347;53.848;27.498;2023-05-25T23:31:26;1014.6;;;16.9;56
54439;BME280;40347;53.848;27.498;2023-05-25T23:36:38;1014.6;;;16.8;56.5
54439;BME280;40347;53.848;27.498;2023-05-25T23:41:26;1014.7;;;16.8;56.7
54439;BME280;40347;53.848;27.498;2023-05-25T23:46:46;1014.7;;;16.7;57.1
54439;BME280;40347;53.848;27.498;2023-05-25T23:51:50;1014.7;;;16.7;57.4
54439;BME280;40347;53.848;27.498;2023-05-25T23:56:40;1014.7;;;16.6;57.9
